Quick Links (Output Below):   Max & Min Temps   /   Climate Reports   /   Zone Forecasts
River Forecasts   /   Forestry Forecasts   /   Aviation Forecasts   /   Radars   /   Features

Terminal Aerodrome Forecast (Texarkana)

Pick a Site:
Arkadelphia | El Dorado | Fayetteville | Fort Smith | Harrison | Highfill | Hot Springs | Jonesboro
Little Rock | Monticello | Mountain Home | Pine Bluff | Texarkana

KTXK 270659Z 2707/2806 16010KT P6SM -SHRA SCT025 OVC060
      TEMPO 2707/2711 3SM SHRA BR OVC015
     FM271100 15010KT 5SM -SHRA OVC015
     FM271600 15010KT 3SM SHRA BR OVC005=

 Latest METARs (Observations) 
How to Decode METARs
08Z KTXK 270753Z AUTO 15010KT 7SM -RA BKN110 18/17 A3022 RMK AO2
         SLP228 P0002 T01830172
07Z KTXK 270653Z AUTO 17005KT 5SM -RA BR FEW022 SCT040 OVC100 18/18
         A3024 RMK AO2 SLP235 P0008 T01830178
06Z KTXK 270553Z AUTO 15008KT 7SM -RA SCT016 OVC020 19/17 A3022 RMK
         AO2 RAB15 SLP229 P0001 60001 T01940172 10211 20194 402110161
05Z KTXK 270453Z AUTO 16008KT 10SM BKN020 OVC055 20/17 A3021 RMK AO2
         RAB02E23 SLP226 P0000 T02000172
04Z KTXK 270353Z AUTO 14012KT 10SM FEW033 SCT042 BKN055 20/17 A3020
         RMK AO2 SLP222 T02000167
03Z KTXK 270253Z 14011KT 10SM SCT035 SCT095 20/17 A3019 RMK AO2
         RAB35E44 SLP218 P0000 60000 T02000167 51005
02Z KTXK 270153Z 14009KT 10SM CLR 20/17 A3018 RMK AO2 SLP216
01Z KTXK 270053Z 12006KT 10SM CLR 20/17 A3018 RMK AO2 SLP217
00Z KTXK 262353Z 13006KT 10SM CLR 21/17 A3017 RMK AO2 SLP213 60002
         T02060167 10211 20183 58010
***** Today's Observations (Above) *****

23Z KTXK 262253Z 14009KT 10SM CLR 21/17 A3019 RMK AO2 SLP218
***** Yesterday's Observations (Above) *****

Back to Main Page

USA.gov is the U.S. government's official web portal to all federal, state and local government web resources and services.